This is the latest recevied weather packets stored in our database for station/object SQ5TM-1. If no packets are shown the sender has not sent any weather packets the latest 10 day(s).
| Time | Temp. | Humidity | Pressure | Rain* | Wind** | Luminosity | Snow |
|---|---|---|---|---|---|---|---|
| 1777736493 | 25.56° C | 29% | 1007 hPa | - | - | 0 W/m² | - |
| 1777735569 | 27.22° C | 28% | 1008 hPa | - | - | 0 W/m² | - |
| 1777734644 | 33.33° C | 24% | 1008 hPa | - | - | 0 W/m² | - |
| 1777733720 | 35.56° C | 23% | 1008 hPa | - | - | 0 W/m² | - |
| 1777732796 | 35° C | 24% | 1008 hPa | - | - | 0 W/m² | - |
| 1777731871 | 35.56° C | 23% | 1008 hPa | - | - | 0 W/m² | - |
| 1777730947 | 31.11° C | 26% | 1008 hPa | - | - | 0 W/m² | - |
| 1777730023 | 31.11° C | 25% | 1009 hPa | - | - | 0 W/m² | - |
| 1777729099 | 33.89° C | 24% | 1009 hPa | - | - | 0 W/m² | - |
| 1777728174 | 30.56° C | 27% | 1009 hPa | - | - | 0 W/m² | - |
| 1777727250 | 32.22° C | 25% | 1009 hPa | - | - | 0 W/m² | - |
| 1777726326 | 33.33° C | 25% | 1009 hPa | - | - | 0 W/m² | - |
| 1777725402 | 29.44° C | 27% | 1010 hPa | - | - | 0 W/m² | - |
| 1777724477 | 31.67° C | 26% | 1010 hPa | - | - | 0 W/m² | - |
| 1777723553 | 33.33° C | 25% | 1010 hPa | - | - | 0 W/m² | - |
| 1777722628 | 33.33° C | 25% | 1010 hPa | - | - | 0 W/m² | - |
| 1777721704 | 34.44° C | 25% | 1010 hPa | - | - | 0 W/m² | - |
| 1777720779 | 30.56° C | 27% | 1011 hPa | - | - | 0 W/m² | - |
| 1777719855 | 29.44° C | 28% | 1011 hPa | - | - | 0 W/m² | - |
| 1777718931 | 28.89° C | 30% | 1011 hPa | - | - | 0 W/m² | - |
| 1777718007 | 25.56° C | 31% | 1011 hPa | - | - | 0 W/m² | - |
| 1777717083 | 23.33° C | 35% | 1011 hPa | - | - | 0 W/m² | - |
| 1777716159 | 22.22° C | 34% | 1011 hPa | - | - | 0 W/m² | - |
| 1777715234 | 21.67° C | 36% | 1012 hPa | - | - | 0 W/m² | - |
| 1777714310 | 21.11° C | 37% | 1012 hPa | - | - | 0 W/m² | - |
* Rain since midnight (hover to see other rain measurements)
** Current wind speed in m/s (hover to see current wind gust speed)